sensor_id;sensor_type;location;lat;lon;timestamp;pressure;altitude;pressure_sealevel;temperature;humidity
24302;BME280;12421;49.732;20.078;2023-08-12T00:05:49;97531.29;;;12.55;79.51
24302;BME280;12421;49.732;20.078;2023-08-12T00:16:19;97525.61;;;12.18;79.92
24302;BME280;12421;49.732;20.078;2023-08-12T00:37:54;97511.55;;;11.61;80.39
24302;BME280;12421;49.732;20.078;2023-08-12T01:10:35;97491.77;;;11.01;81.23
24302;BME280;12421;49.732;20.078;2023-08-12T01:21:01;97486.02;;;10.88;81.01
24302;BME280;12421;49.732;20.078;2023-08-12T01:32:25;97492.05;;;10.67;81.13
24302;BME280;12421;49.732;20.078;2023-08-12T01:42:07;97488.60;;;10.32;81.42
24302;BME280;12421;49.732;20.078;2023-08-12T01:52:12;97494.40;;;10.23;81.88
24302;BME280;12421;49.732;20.078;2023-08-12T02:02:16;97498.42;;;10.17;81.67
24302;BME280;12421;49.732;20.078;2023-08-12T02:12:19;97496.48;;;10.03;81.69
24302;BME280;12421;49.732;20.078;2023-08-12T02:22:23;97499.45;;;9.95;82.06
24302;BME280;12421;49.732;20.078;2023-08-12T02:32:27;97499.61;;;9.83;81.89
24302;BME280;12421;49.732;20.078;2023-08-12T02:42:42;97497.31;;;9.72;81.98
24302;BME280;12421;49.732;20.078;2023-08-12T02:52:47;97503.79;;;9.61;82.11
24302;BME280;12421;49.732;20.078;2023-08-12T03:02:51;97508.86;;;9.57;82.35
24302;BME280;12421;49.732;20.078;2023-08-12T03:12:55;97516.59;;;9.62;81.82
24302;BME280;12421;49.732;20.078;2023-08-12T03:22:58;97529.14;;;9.38;81.87
24302;BME280;12421;49.732;20.078;2023-08-12T03:33:04;97531.23;;;9.35;82.37
24302;BME280;12421;49.732;20.078;2023-08-12T03:43:08;97528.98;;;9.41;82.40
24302;BME280;12421;49.732;20.078;2023-08-12T03:53:12;97534.78;;;9.47;82.19
24302;BME280;12421;49.732;20.078;2023-08-12T04:03:16;97540.22;;;9.46;82.02
24302;BME280;12421;49.732;20.078;2023-08-12T04:13:19;97540.59;;;9.60;82.73
24302;BME280;12421;49.732;20.078;2023-08-12T04:23:22;97536.79;;;9.76;82.93
24302;BME280;12421;49.732;20.078;2023-08-12T04:33:27;97533.47;;;9.97;83.18
24302;BME280;12421;49.732;20.078;2023-08-12T04:43:30;97536.50;;;10.21;83.57
24302;BME280;12421;49.732;20.078;2023-08-12T04:53:35;97534.56;;;10.59;84.47
24302;BME280;12421;49.732;20.078;2023-08-12T05:03:38;97529.34;;;11.08;84.73
24302;BME280;12421;49.732;20.078;2023-08-12T05:13:43;97534.41;;;11.64;85.17
24302;BME280;12421;49.732;20.078;2023-08-12T05:23:50;97528.61;;;12.17;85.34
24302;BME280;12421;49.732;20.078;2023-08-12T05:33:53;97527.05;;;12.75;85.07
24302;BME280;12421;49.732;20.078;2023-08-12T05:43:57;97525.73;;;13.17;84.21
24302;BME280;12421;49.732;20.078;2023-08-12T05:54:00;97522.37;;;13.60;83.79
24302;BME280;12421;49.732;20.078;2023-08-12T06:04:04;97514.42;;;14.10;82.99
24302;BME280;12421;49.732;20.078;2023-08-12T06:14:07;97506.42;;;14.77;81.95
24302;BME280;12421;49.732;20.078;2023-08-12T06:24:10;97508.66;;;15.77;79.73
24302;BME280;12421;49.732;20.078;2023-08-12T06:34:13;97511.52;;;16.99;77.02
24302;BME280;12421;49.732;20.078;2023-08-12T06:44:17;97504.17;;;18.55;73.61
24302;BME280;12421;49.732;20.078;2023-08-12T06:54:20;97502.98;;;20.19;70.15
24302;BME280;12421;49.732;20.078;2023-08-12T07:04:26;97496.36;;;21.73;66.84
24302;BME280;12421;49.732;20.078;2023-08-12T07:14:29;97493.02;;;23.11;64.10
24302;BME280;12421;49.732;20.078;2023-08-12T07:24:33;97494.83;;;24.39;61.07
24302;BME280;12421;49.732;20.078;2023-08-12T07:34:36;97485.27;;;25.46;58.40
24302;BME280;12421;49.732;20.078;2023-08-12T07:44:40;97479.71;;;25.95;56.16
24302;BME280;12421;49.732;20.078;2023-08-12T07:54:43;97476.70;;;26.25;56.17
24302;BME280;12421;49.732;20.078;2023-08-12T08:04:47;97467.70;;;26.76;54.87
24302;BME280;12421;49.732;20.078;2023-08-12T08:14:52;97464.66;;;26.87;54.39
24302;BME280;12421;49.732;20.078;2023-08-12T08:24:56;97449.52;;;26.38;55.22
24302;BME280;12421;49.732;20.078;2023-08-12T08:34:59;97446.70;;;25.96;55.28
24302;BME280;12421;49.732;20.078;2023-08-12T08:45:03;97440.77;;;25.70;54.98
24302;BME280;12421;49.732;20.078;2023-08-12T08:55:11;97440.73;;;25.51;55.04
24302;BME280;12421;49.732;20.078;2023-08-12T09:05:16;97431.05;;;25.59;53.83
24302;BME280;12421;49.732;20.078;2023-08-12T09:15:20;97420.91;;;25.49;51.15
24302;BME280;12421;49.732;20.078;2023-08-12T09:25:25;97410.58;;;25.48;52.90
24302;BME280;12421;49.732;20.078;2023-08-12T09:35:32;97402.59;;;25.49;52.58
24302;BME280;12421;49.732;20.078;2023-08-12T09:45:37;97395.61;;;25.51;51.10
24302;BME280;12421;49.732;20.078;2023-08-12T09:55:42;97398.10;;;25.66;52.66
24302;BME280;12421;49.732;20.078;2023-08-12T10:05:46;97385.81;;;25.75;52.44
24302;BME280;12421;49.732;20.078;2023-08-12T10:15:50;97380.69;;;25.73;51.98
24302;BME280;12421;49.732;20.078;2023-08-12T10:25:54;97380.27;;;25.83;51.49
24302;BME280;12421;49.732;20.078;2023-08-12T10:36:00;97370.89;;;25.80;51.24
24302;BME280;12421;49.732;20.078;2023-08-12T10:46:04;97356.89;;;25.85;51.21
24302;BME280;12421;49.732;20.078;2023-08-12T10:56:11;97350.83;;;25.73;50.06
24302;BME280;12421;49.732;20.078;2023-08-12T11:06:14;97338.64;;;25.70;50.75
24302;BME280;12421;49.732;20.078;2023-08-12T11:16:17;97328.61;;;25.75;50.04
24302;BME280;12421;49.732;20.078;2023-08-12T11:26:24;97316.95;;;25.71;49.78
24302;BME280;12421;49.732;20.078;2023-08-12T11:36:28;97315.12;;;25.77;50.36
24302;BME280;12421;49.732;20.078;2023-08-12T11:46:34;97307.27;;;25.82;49.96
24302;BME280;12421;49.732;20.078;2023-08-12T11:56:37;97292.62;;;25.94;49.53
24302;BME280;12421;49.732;20.078;2023-08-12T12:06:40;97290.52;;;26.04;50.17
24302;BME280;12421;49.732;20.078;2023-08-12T12:16:46;97280.95;;;26.12;50.62
24302;BME280;12421;49.732;20.078;2023-08-12T12:26:50;97273.31;;;26.14;48.91
24302;BME280;12421;49.732;20.078;2023-08-12T12:36:54;97268.98;;;26.19;49.99
24302;BME280;12421;49.732;20.078;2023-08-12T12:46:57;97259.66;;;26.24;48.91
24302;BME280;12421;49.732;20.078;2023-08-12T12:57:02;97248.77;;;26.25;49.29
24302;BME280;12421;49.732;20.078;2023-08-12T13:07:06;97244.85;;;26.32;50.47
24302;BME280;12421;49.732;20.078;2023-08-12T13:17:09;97240.49;;;26.35;51.09
24302;BME280;12421;49.732;20.078;2023-08-12T13:27:13;97238.17;;;26.43;50.52
24302;BME280;12421;49.732;20.078;2023-08-12T13:37:17;97230.21;;;26.53;51.75
24302;BME280;12421;49.732;20.078;2023-08-12T13:47:20;97223.75;;;26.43;49.50
24302;BME280;12421;49.732;20.078;2023-08-12T13:57:24;97217.40;;;26.33;49.09
24302;BME280;12421;49.732;20.078;2023-08-12T14:07:27;97208.02;;;26.41;49.47
24302;BME280;12421;49.732;20.078;2023-08-12T14:17:30;97203.96;;;26.43;49.25
24302;BME280;12421;49.732;20.078;2023-08-12T14:27:34;97203.17;;;26.49;49.87
24302;BME280;12421;49.732;20.078;2023-08-12T14:37:37;97201.16;;;26.49;49.53
24302;BME280;12421;49.732;20.078;2023-08-12T14:47:40;97195.00;;;26.45;49.42
24302;BME280;12421;49.732;20.078;2023-08-12T14:57:43;97191.40;;;26.40;50.40
24302;BME280;12421;49.732;20.078;2023-08-12T15:07:46;97182.09;;;26.39;50.26
24302;BME280;12421;49.732;20.078;2023-08-12T15:17:50;97176.65;;;26.39;49.19
24302;BME280;12421;49.732;20.078;2023-08-12T15:27:53;97173.23;;;26.34;48.94
24302;BME280;12421;49.732;20.078;2023-08-12T15:37:57;97165.74;;;26.26;49.11
24302;BME280;12421;49.732;20.078;2023-08-12T15:48:01;97158.23;;;26.12;49.86
24302;BME280;12421;49.732;20.078;2023-08-12T15:58:05;97149.66;;;26.01;50.04
24302;BME280;12421;49.732;20.078;2023-08-12T16:08:09;97140.80;;;25.70;52.50
24302;BME280;12421;49.732;20.078;2023-08-12T16:18:13;97140.35;;;25.34;53.59
24302;BME280;12421;49.732;20.078;2023-08-12T16:28:17;97136.91;;;24.96;55.40
24302;BME280;12421;49.732;20.078;2023-08-12T16:38:20;97133.21;;;24.55;57.16
24302;BME280;12421;49.732;20.078;2023-08-12T16:48:24;97139.05;;;24.20;58.75
24302;BME280;12421;49.732;20.078;2023-08-12T16:58:27;97140.45;;;23.73;59.81
24302;BME280;12421;49.732;20.078;2023-08-12T17:08:30;97141.67;;;23.25;61.51
24302;BME280;12421;49.732;20.078;2023-08-12T17:18:34;97151.69;;;22.88;63.56
24302;BME280;12421;49.732;20.078;2023-08-12T17:28:37;97157.60;;;22.46;64.69
24302;BME280;12421;49.732;20.078;2023-08-12T17:38:40;97161.48;;;21.93;65.62
24302;BME280;12421;49.732;20.078;2023-08-12T17:48:44;97158.79;;;21.37;66.90
24302;BME280;12421;49.732;20.078;2023-08-12T17:58:49;97158.29;;;20.74;67.78
24302;BME280;12421;49.732;20.078;2023-08-12T18:08:52;97159.41;;;20.16;69.57
24302;BME280;12421;49.732;20.078;2023-08-12T18:18:55;97169.95;;;19.67;71.16
24302;BME280;12421;49.732;20.078;2023-08-12T18:28:58;97182.27;;;19.28;72.16
24302;BME280;12421;49.732;20.078;2023-08-12T18:39:02;97196.70;;;18.83;73.20
24302;BME280;12421;49.732;20.078;2023-08-12T18:49:06;97201.85;;;18.42;74.02
24302;BME280;12421;49.732;20.078;2023-08-12T18:59:10;97210.80;;;18.01;74.80
24302;BME280;12421;49.732;20.078;2023-08-12T19:09:14;97215.48;;;17.59;75.51
24302;BME280;12421;49.732;20.078;2023-08-12T19:19:19;97215.02;;;17.41;76.18
24302;BME280;12421;49.732;20.078;2023-08-12T19:29:23;97222.80;;;17.09;76.22
24302;BME280;12421;49.732;20.078;2023-08-12T19:39:29;97221.13;;;16.66;76.98
24302;BME280;12421;49.732;20.078;2023-08-12T19:49:32;97227.27;;;16.37;77.96
24302;BME280;12421;49.732;20.078;2023-08-12T19:59:35;97222.27;;;16.20;78.65
24302;BME280;12421;49.732;20.078;2023-08-12T20:09:39;97225.40;;;15.97;78.83
24302;BME280;12421;49.732;20.078;2023-08-12T20:19:42;97229.64;;;15.78;78.93
24302;BME280;12421;49.732;20.078;2023-08-12T20:29:45;97234.27;;;15.57;79.51
24302;BME280;12421;49.732;20.078;2023-08-12T20:39:53;97247.77;;;15.41;79.84
24302;BME280;12421;49.732;20.078;2023-08-12T20:49:56;97246.95;;;15.30;79.92
24302;BME280;12421;49.732;20.078;2023-08-12T21:00:00;97253.54;;;15.13;79.76
24302;BME280;12421;49.732;20.078;2023-08-12T21:10:05;97256.23;;;14.89;80.07
24302;BME280;12421;49.732;20.078;2023-08-12T21:20:10;97251.09;;;14.74;80.30
24302;BME280;12421;49.732;20.078;2023-08-12T21:30:13;97253.82;;;14.54;80.50
24302;BME280;12421;49.732;20.078;2023-08-12T21:40:16;97244.59;;;14.40;81.05
24302;BME280;12421;49.732;20.078;2023-08-12T21:50:19;97236.30;;;14.31;81.27
24302;BME280;12421;49.732;20.078;2023-08-12T22:00:23;97235.02;;;14.14;81.13
24302;BME280;12421;49.732;20.078;2023-08-12T22:10:26;97233.70;;;14.01;81.54
24302;BME280;12421;49.732;20.078;2023-08-12T22:20:30;97232.91;;;13.86;81.63
24302;BME280;12421;49.732;20.078;2023-08-12T22:30:33;97223.30;;;13.72;82.39
24302;BME280;12421;49.732;20.078;2023-08-12T22:40:37;97217.27;;;13.64;82.75
24302;BME280;12421;49.732;20.078;2023-08-12T22:50:40;97212.94;;;13.59;82.56
24302;BME280;12421;49.732;20.078;2023-08-12T23:00:43;97205.88;;;13.60;81.83
24302;BME280;12421;49.732;20.078;2023-08-12T23:10:47;97203.52;;;13.34;81.62
24302;BME280;12421;49.732;20.078;2023-08-12T23:20:51;97203.02;;;13.23;82.31
24302;BME280;12421;49.732;20.078;2023-08-12T23:30:54;97195.70;;;13.17;82.62
24302;BME280;12421;49.732;20.078;2023-08-12T23:40:57;97199.79;;;13.05;82.92
24302;BME280;12421;49.732;20.078;2023-08-12T23:51:02;97201.48;;;13.09;82.59
